createdAt,value
2023-01-08T00:01:54.923Z,25.90
2023-01-08T00:04:24.167Z,26.70
2023-01-08T00:06:52.092Z,26.10
2023-01-08T00:09:20.079Z,24.70
2023-01-08T00:11:49.318Z,26.00
2023-01-08T00:14:17.221Z,24.70
2023-01-08T00:16:45.340Z,24.60
2023-01-08T00:19:13.572Z,25.20
2023-01-08T00:21:41.483Z,24.60
2023-01-08T00:24:09.423Z,27.30
2023-01-08T00:26:40.588Z,30.10
2023-01-08T00:29:08.720Z,29.30
2023-01-08T00:31:36.728Z,30.30
2023-01-08T00:34:04.840Z,29.40
2023-01-08T00:36:34.176Z,30.40
2023-01-08T00:39:02.144Z,29.60
2023-01-08T00:41:30.160Z,28.00
2023-01-08T00:43:58.076Z,24.10
2023-01-08T00:46:26.184Z,24.10
2023-01-08T00:48:54.093Z,23.00
2023-01-08T00:51:22.177Z,23.20
2023-01-08T00:53:50.064Z,24.00
2023-01-08T00:56:18.005Z,24.00
2023-01-08T00:58:45.890Z,23.70
2023-01-08T01:01:15.122Z,23.90
2023-01-08T01:03:45.185Z,23.70
2023-01-08T01:06:14.260Z,24.50
2023-01-08T01:08:44.417Z,23.10
2023-01-08T01:11:22.938Z,23.90
2023-01-08T01:13:51.522Z,23.50
2023-01-08T01:16:19.761Z,22.00
2023-01-08T01:18:48.076Z,23.20
2023-01-08T01:21:27.988Z,22.80
2023-01-08T01:23:58.883Z,23.10
2023-01-08T01:26:27.967Z,22.80
2023-01-08T01:28:57.983Z,24.80
2023-01-08T01:31:29.464Z,28.30
2023-01-08T01:33:58.354Z,27.30
2023-01-08T01:36:26.931Z,27.40
2023-01-08T01:38:57.352Z,27.10
2023-01-08T01:41:38.044Z,26.80
2023-01-08T01:44:43.502Z,25.80
2023-01-08T01:47:27.942Z,27.40
2023-01-08T01:50:14.043Z,27.10
2023-01-08T01:53:12.090Z,29.20
2023-01-08T01:55:43.030Z,28.60
2023-01-08T01:58:17.425Z,32.00
2023-01-08T02:00:45.568Z,28.00
2023-01-08T02:03:15.757Z,25.90
2023-01-08T02:05:56.562Z,22.80
2023-01-08T02:08:47.439Z,27.40
2023-01-08T02:11:27.801Z,23.60
2023-01-08T02:14:05.416Z,23.40
2023-01-08T02:16:55.411Z,24.50
2023-01-08T02:19:38.729Z,24.10
2023-01-08T02:22:09.481Z,24.10
2023-01-08T02:25:15.516Z,23.20
2023-01-08T02:27:46.021Z,22.90
2023-01-08T02:30:14.402Z,25.30
2023-01-08T02:32:42.966Z,23.30
2023-01-08T02:35:12.239Z,26.10
2023-01-08T02:37:40.883Z,24.60
2023-01-08T02:40:17.594Z,24.30
2023-01-08T02:43:02.090Z,26.70
2023-01-08T02:45:51.263Z,26.50
2023-01-08T02:48:40.400Z,26.00
2023-01-08T02:51:40.276Z,26.70
2023-01-08T02:54:15.855Z,26.50
2023-01-08T02:56:55.355Z,27.60
2023-01-08T02:59:24.129Z,25.60
2023-01-08T03:01:52.425Z,30.20
2023-01-08T03:04:22.897Z,32.10
2023-01-08T03:06:51.188Z,31.50
2023-01-08T03:09:19.409Z,29.30
2023-01-08T03:11:55.678Z,30.70
2023-01-08T03:14:30.176Z,33.00
2023-01-08T03:17:08.040Z,31.80
2023-01-08T03:19:54.965Z,30.20
2023-01-08T03:22:23.876Z,31.80
2023-01-08T03:24:53.477Z,32.10
2023-01-08T03:27:29.907Z,29.50
2023-01-08T03:29:59.946Z,32.00
2023-01-08T03:32:29.706Z,29.20
2023-01-08T03:34:59.791Z,29.90
2023-01-08T03:37:34.688Z,29.20
2023-01-08T03:40:23.348Z,32.70
2023-01-08T03:42:51.337Z,30.90
2023-01-08T03:45:20.227Z,31.00
2023-01-08T03:47:48.896Z,29.90
2023-01-08T03:50:23.196Z,30.40
2023-01-08T03:52:51.005Z,30.10
2023-01-08T03:55:19.004Z,31.50
2023-01-08T03:57:46.903Z,31.10
2023-01-08T04:00:15.766Z,31.20
2023-01-08T04:02:43.786Z,30.50
2023-01-08T04:05:14.049Z,29.40
2023-01-08T04:07:42.014Z,30.90
2023-01-08T04:10:10.492Z,30.40
2023-01-08T04:12:38.804Z,29.90
2023-01-08T04:15:07.549Z,31.20
2023-01-08T04:17:35.529Z,30.50
2023-01-08T04:20:04.002Z,31.30
2023-01-08T04:22:31.965Z,31.10
2023-01-08T04:24:59.833Z,32.10
2023-01-08T04:27:27.842Z,32.10
2023-01-08T04:29:55.764Z,34.50
2023-01-08T04:32:23.738Z,40.70
2023-01-08T04:34:51.571Z,39.70
2023-01-08T04:37:19.508Z,36.70
2023-01-08T04:39:47.479Z,40.50
2023-01-08T04:42:15.464Z,40.40
2023-01-08T04:44:43.318Z,39.10
2023-01-08T04:47:11.329Z,41.40
2023-01-08T04:49:39.235Z,37.80
2023-01-08T04:52:07.185Z,36.30
2023-01-08T04:54:35.051Z,42.40
2023-01-08T04:57:03.044Z,37.00
2023-01-08T04:59:31.093Z,35.50
2023-01-08T05:01:59.549Z,31.10
2023-01-08T05:04:27.605Z,32.90
2023-01-08T05:06:55.879Z,34.30
2023-01-08T05:09:26.070Z,33.20
2023-01-08T05:11:54.229Z,34.40
2023-01-08T05:14:22.296Z,32.50
2023-01-08T05:16:50.279Z,30.80
2023-01-08T05:19:18.276Z,29.60
2023-01-08T05:21:46.379Z,29.20
2023-01-08T05:24:14.376Z,28.80
2023-01-08T05:26:42.393Z,29.90
2023-01-08T05:29:10.717Z,28.90
2023-01-08T05:31:38.785Z,28.20
2023-01-08T05:34:06.794Z,32.20
2023-01-08T05:36:34.843Z,31.60
2023-01-08T05:39:03.444Z,30.50
2023-01-08T05:41:31.358Z,28.20
2023-01-08T05:44:00.342Z,26.90
2023-01-08T05:46:28.352Z,26.30
2023-01-08T05:48:57.842Z,30.30
2023-01-08T05:51:25.874Z,30.40
2023-01-08T05:53:53.844Z,31.70
2023-01-08T05:56:22.110Z,34.30
2023-01-08T05:58:54.179Z,35.00
2023-01-08T06:01:24.116Z,33.40
2023-01-08T06:03:55.767Z,31.00
2023-01-08T06:06:24.251Z,40.00
2023-01-08T06:08:52.476Z,40.20
2023-01-08T06:11:20.579Z,37.20
2023-01-08T06:13:48.748Z,36.80
2023-01-08T06:16:17.776Z,36.60
2023-01-08T06:18:45.910Z,35.90
2023-01-08T06:21:15.183Z,35.60
2023-01-08T06:23:43.247Z,36.60
2023-01-08T06:26:11.289Z,38.40
2023-01-08T06:28:39.221Z,37.30
2023-01-08T06:31:07.158Z,39.50
2023-01-08T06:33:35.211Z,37.60
2023-01-08T06:36:04.907Z,37.10
2023-01-08T06:38:37.105Z,36.60
2023-01-08T06:41:10.747Z,39.10
2023-01-08T06:43:39.226Z,41.90
2023-01-08T06:46:09.038Z,45.80
2023-01-08T06:48:37.549Z,65.50
2023-01-08T06:51:06.429Z,57.00
2023-01-08T06:53:34.578Z,53.90
2023-01-08T06:56:04.511Z,44.90
2023-01-08T06:58:32.586Z,41.40
2023-01-08T07:01:00.719Z,45.40
2023-01-08T07:03:28.830Z,43.30
2023-01-08T07:05:57.153Z,51.00
2023-01-08T07:08:25.162Z,44.60
2023-01-08T07:10:53.122Z,43.50
2023-01-08T07:13:22.754Z,43.30
2023-01-08T07:15:50.829Z,41.80
2023-01-08T07:18:18.880Z,38.20
2023-01-08T07:20:49.017Z,38.10
2023-01-08T07:23:17.194Z,36.80
2023-01-08T07:25:45.207Z,41.20
2023-01-08T07:28:13.371Z,41.50
2023-01-08T07:30:41.376Z,39.50
2023-01-08T07:33:09.386Z,38.80
2023-01-08T07:35:39.096Z,36.50
2023-01-08T07:38:07.050Z,42.40
2023-01-08T07:40:35.005Z,44.30
2023-01-08T07:43:04.747Z,38.10
2023-01-08T07:45:32.775Z,36.20
2023-01-08T07:48:00.847Z,35.60
2023-01-08T07:50:29.050Z,35.00
2023-01-08T07:52:59.073Z,30.00
2023-01-08T07:55:29.017Z,31.10
2023-01-08T07:57:56.955Z,29.10
2023-01-08T08:00:25.098Z,31.90
2023-01-08T08:02:53.417Z,32.10
2023-01-08T08:05:21.548Z,35.20
2023-01-08T08:07:49.702Z,34.00
2023-01-08T08:10:17.704Z,40.00
2023-01-08T08:12:45.839Z,34.30
2023-01-08T08:15:14.265Z,34.70
2023-01-08T08:17:46.797Z,38.20
2023-01-08T08:20:15.718Z,34.60
2023-01-08T08:22:43.797Z,30.80
2023-01-08T08:25:12.561Z,29.80
2023-01-08T08:27:40.725Z,32.80
2023-01-08T08:30:10.856Z,32.10
2023-01-08T08:32:39.076Z,28.80
2023-01-08T08:35:07.543Z,36.90
2023-01-08T08:37:36.315Z,34.30
2023-01-08T08:40:08.489Z,31.30
2023-01-08T08:42:36.384Z,30.30
2023-01-08T08:45:05.438Z,26.60
2023-01-08T08:47:34.084Z,24.40
2023-01-08T08:50:02.406Z,24.10
2023-01-08T08:52:32.200Z,23.00
2023-01-08T08:55:00.680Z,23.10
2023-01-08T08:57:28.766Z,27.00
2023-01-08T08:59:56.794Z,25.60
2023-01-08T09:02:24.915Z,25.10
2023-01-08T09:04:53.180Z,26.50
2023-01-08T09:07:21.808Z,31.10
2023-01-08T09:09:49.813Z,29.10
2023-01-08T09:12:18.995Z,27.60
2023-01-08T09:14:47.019Z,26.10
2023-01-08T09:17:14.957Z,24.20
2023-01-08T09:19:43.035Z,28.20
2023-01-08T09:22:10.992Z,31.00
2023-01-08T09:24:39.138Z,25.40
2023-01-08T09:27:08.451Z,23.30
2023-01-08T09:29:37.553Z,22.40
2023-01-08T09:32:07.367Z,21.50
2023-01-08T09:34:38.531Z,19.00
2023-01-08T09:37:09.332Z,20.60
2023-01-08T09:39:39.261Z,20.00
2023-01-08T09:42:10.367Z,17.70
2023-01-08T09:44:41.615Z,18.70
2023-01-08T09:47:26.954Z,19.90
2023-01-08T09:50:01.837Z,19.80
2023-01-08T09:52:30.907Z,18.50
2023-01-08T09:55:00.900Z,17.50
2023-01-08T09:57:29.400Z,18.70
2023-01-08T09:59:59.693Z,18.50
2023-01-08T10:02:29.981Z,19.10
2023-01-08T10:05:03.985Z,18.90
2023-01-08T10:07:35.219Z,19.70
2023-01-08T10:10:03.869Z,21.10
2023-01-08T10:12:34.664Z,19.50
2023-01-08T10:15:11.154Z,20.10
2023-01-08T10:18:06.733Z,20.40
2023-01-08T10:20:35.734Z,21.00
2023-01-08T10:23:19.374Z,18.30
2023-01-08T10:26:01.046Z,19.90
2023-01-08T10:28:35.241Z,18.20
2023-01-08T10:31:11.822Z,18.30
2023-01-08T10:33:45.765Z,18.10
2023-01-08T10:36:17.384Z,18.30
2023-01-08T10:38:56.457Z,18.60
2023-01-08T10:41:24.615Z,18.20
2023-01-08T10:43:59.042Z,18.00
2023-01-08T10:46:37.192Z,18.90
2023-01-08T10:49:06.615Z,18.70
2023-01-08T10:51:34.616Z,18.10
2023-01-08T10:54:21.209Z,18.70
2023-01-08T10:56:49.193Z,17.80
2023-01-08T10:59:23.066Z,16.30
2023-01-08T11:01:56.125Z,17.00
2023-01-08T11:04:28.861Z,18.30
2023-01-08T11:06:59.990Z,19.60
2023-01-08T11:09:34.512Z,17.50
2023-01-08T11:12:02.625Z,19.10
2023-01-08T11:14:38.230Z,17.90
2023-01-08T11:17:11.725Z,17.70
2023-01-08T11:19:40.088Z,22.40
2023-01-08T11:22:23.785Z,35.70
2023-01-08T11:24:53.429Z,18.60
2023-01-08T11:27:42.053Z,19.00
2023-01-08T11:30:23.857Z,17.60
2023-01-08T11:33:13.276Z,18.10
2023-01-08T11:35:54.570Z,17.50
2023-01-08T11:38:29.924Z,16.50
2023-01-08T11:41:17.166Z,17.50
2023-01-08T11:44:09.579Z,17.20
2023-01-08T11:46:56.794Z,16.40
2023-01-08T11:49:42.259Z,19.20
2023-01-08T11:52:39.004Z,18.40
2023-01-08T11:55:29.659Z,17.60
2023-01-08T11:58:23.306Z,17.70
2023-01-08T12:01:44.916Z,17.40
2023-01-08T12:04:12.922Z,18.70
2023-01-08T12:07:08.194Z,18.60
2023-01-08T12:09:43.297Z,18.60
2023-01-08T12:13:05.411Z,19.30
2023-01-08T12:15:59.623Z,19.40
2023-01-08T12:18:57.646Z,17.50
2023-01-08T12:21:41.785Z,17.70
2023-01-08T12:24:19.501Z,19.00
2023-01-08T12:27:55.248Z,19.30
2023-01-08T12:30:33.337Z,19.60
2023-01-08T12:33:07.577Z,18.20
2023-01-08T12:35:43.444Z,18.70
2023-01-08T12:38:36.281Z,19.20
2023-01-08T12:41:13.439Z,18.30
2023-01-08T12:43:58.241Z,18.20
2023-01-08T12:46:29.356Z,18.40
2023-01-08T12:48:58.149Z,19.20
2023-01-08T12:51:36.584Z,19.80
2023-01-08T12:54:34.044Z,20.70
2023-01-08T12:57:42.472Z,21.40
2023-01-08T13:00:45.258Z,20.40
2023-01-08T13:03:21.618Z,18.90
2023-01-08T13:05:49.866Z,19.20
2023-01-08T13:08:38.267Z,19.90
2023-01-08T13:11:07.417Z,21.00
2023-01-08T13:13:41.247Z,22.10
2023-01-08T13:16:20.959Z,20.30
2023-01-08T13:19:04.328Z,19.20
2023-01-08T13:21:37.945Z,18.60
2023-01-08T13:24:35.691Z,20.30
2023-01-08T13:27:20.166Z,20.10
2023-01-08T13:29:49.827Z,20.70
2023-01-08T13:32:47.274Z,19.40
2023-01-08T13:35:15.461Z,20.50
2023-01-08T13:37:47.035Z,20.50
2023-01-08T13:40:39.368Z,20.10
2023-01-08T13:43:33.246Z,20.20
2023-01-08T13:46:01.192Z,19.90
2023-01-08T13:48:34.349Z,21.40
2023-01-08T13:51:02.792Z,23.10
2023-01-08T13:53:31.198Z,21.80
2023-01-08T13:56:06.992Z,23.90
2023-01-08T13:58:44.761Z,26.30
2023-01-08T14:01:14.373Z,24.70
2023-01-08T14:03:48.127Z,26.00
2023-01-08T14:06:22.188Z,25.00
2023-01-08T14:08:54.117Z,26.50
2023-01-08T14:11:28.762Z,26.80
2023-01-08T14:13:57.743Z,25.70
2023-01-08T14:16:26.074Z,25.50
2023-01-08T14:19:00.408Z,23.70
2023-01-08T14:21:30.641Z,26.00
2023-01-08T14:23:58.902Z,27.00
2023-01-08T14:26:36.631Z,25.20
2023-01-08T14:29:16.460Z,24.20
2023-01-08T14:31:56.121Z,25.20
2023-01-08T14:34:26.889Z,25.90
2023-01-08T14:36:56.214Z,25.20
2023-01-08T14:39:36.314Z,24.40
2023-01-08T14:42:31.911Z,23.10
2023-01-08T14:45:23.219Z,21.20
2023-01-08T14:47:54.880Z,22.10
2023-01-08T14:50:30.219Z,22.50
2023-01-08T14:53:09.058Z,22.50
2023-01-08T14:55:42.582Z,23.20
2023-01-08T14:58:22.083Z,22.10
2023-01-08T15:01:04.987Z,23.00
2023-01-08T15:06:11.671Z,26.40
2023-01-08T15:08:47.458Z,25.30
2023-01-08T15:11:31.173Z,24.70
2023-01-08T15:14:02.722Z,24.10
2023-01-08T15:16:42.792Z,23.80
2023-01-08T15:19:22.532Z,24.90
2023-01-08T15:21:53.023Z,23.10
2023-01-08T15:24:53.239Z,19.60
2023-01-08T15:27:21.504Z,20.50
2023-01-08T15:29:52.168Z,19.10
2023-01-08T15:32:23.175Z,20.80
2023-01-08T15:34:51.066Z,19.70
2023-01-08T15:37:19.047Z,19.80
2023-01-08T15:39:47.134Z,21.40
2023-01-08T15:42:41.437Z,21.50
2023-01-08T15:45:19.433Z,29.00
2023-01-08T15:47:47.977Z,26.00
2023-01-08T15:50:20.443Z,24.40
2023-01-08T15:52:48.770Z,24.60
2023-01-08T15:55:21.488Z,25.80
2023-01-08T16:00:22.623Z,38.00
2023-01-08T16:02:53.504Z,50.30
2023-01-08T16:05:28.413Z,45.40
2023-01-08T16:07:56.640Z,37.10
2023-01-08T16:10:25.005Z,34.20
2023-01-08T16:12:53.036Z,27.30
2023-01-08T16:15:31.009Z,35.20
2023-01-08T16:17:59.554Z,31.50
2023-01-08T16:20:27.541Z,30.40
2023-01-08T16:22:57.183Z,29.40
2023-01-08T16:25:25.256Z,25.10
2023-01-08T16:27:53.438Z,24.20
2023-01-08T16:30:26.623Z,24.60
2023-01-08T16:32:54.703Z,23.40
2023-01-08T16:35:22.854Z,24.60
2023-01-08T16:37:52.734Z,25.00
2023-01-08T16:40:20.841Z,27.10
2023-01-08T16:42:48.954Z,24.80
2023-01-08T16:45:17.106Z,23.40
2023-01-08T16:47:45.308Z,23.50
2023-01-08T16:50:13.473Z,22.90
2023-01-08T16:52:41.515Z,23.20
2023-01-08T16:55:10.989Z,23.00
2023-01-08T16:57:38.945Z,23.30
2023-01-08T17:00:09.106Z,25.30
2023-01-08T17:02:37.000Z,23.40
2023-01-08T17:05:08.986Z,23.70
2023-01-08T17:07:37.216Z,23.30
2023-01-08T17:10:06.188Z,22.40
2023-01-08T17:12:34.119Z,22.60
2023-01-08T17:15:02.099Z,23.20
2023-01-08T17:17:29.938Z,23.60
2023-01-08T17:19:57.786Z,23.30
2023-01-08T17:22:25.822Z,26.70
2023-01-08T17:24:53.843Z,34.70
2023-01-08T17:27:22.383Z,40.10
2023-01-08T17:29:50.249Z,33.30
2023-01-08T17:32:18.211Z,26.20
2023-01-08T17:34:46.570Z,23.30
2023-01-08T17:37:15.618Z,24.10
2023-01-08T17:39:43.853Z,22.60
2023-01-08T17:42:25.793Z,21.60
2023-01-08T17:44:58.819Z,21.80
2023-01-08T17:47:27.241Z,20.50
2023-01-08T17:49:56.968Z,22.10
2023-01-08T17:52:27.907Z,23.10
2023-01-08T17:54:55.831Z,21.80
2023-01-08T17:57:26.828Z,22.40
2023-01-08T17:59:54.713Z,22.70
2023-01-08T18:02:22.842Z,26.90
2023-01-08T18:04:50.842Z,37.50
2023-01-08T18:07:18.830Z,34.50
2023-01-08T18:09:46.725Z,36.10
2023-01-08T18:12:15.044Z,37.30
2023-01-08T18:14:44.148Z,28.10
2023-01-08T18:17:12.194Z,24.40
2023-01-08T18:19:43.545Z,25.00
2023-01-08T18:22:20.234Z,23.50
2023-01-08T18:24:50.965Z,21.40
2023-01-08T18:27:19.215Z,23.20
2023-01-08T18:29:47.226Z,21.60
2023-01-08T18:32:15.203Z,21.20
2023-01-08T18:34:43.469Z,22.40
2023-01-08T18:37:11.335Z,23.50
2023-01-08T18:39:39.224Z,23.40
2023-01-08T18:42:27.167Z,22.20
2023-01-08T18:45:00.430Z,22.30
2023-01-08T18:47:29.056Z,22.40
2023-01-08T18:49:59.860Z,23.00
2023-01-08T18:52:31.896Z,22.80
2023-01-08T18:54:59.874Z,22.10
2023-01-08T18:57:28.940Z,21.40
2023-01-08T18:59:57.134Z,22.60
2023-01-08T19:02:33.597Z,23.80
2023-01-08T19:05:01.991Z,22.90
2023-01-08T19:07:31.697Z,25.00
2023-01-08T19:10:01.203Z,23.70
2023-01-08T19:12:33.281Z,23.40
2023-01-08T19:15:01.398Z,24.00
2023-01-08T19:17:31.527Z,23.60
2023-01-08T19:20:03.719Z,23.70
2023-01-08T19:22:34.908Z,23.60
2023-01-08T19:25:03.329Z,24.10
2023-01-08T19:30:07.440Z,24.40
2023-01-08T19:32:40.714Z,23.00
2023-01-08T19:35:10.152Z,25.30
2023-01-08T19:40:24.979Z,24.30
2023-01-08T19:43:11.744Z,25.10
2023-01-08T19:45:43.856Z,30.20
2023-01-08T19:48:13.635Z,34.50
2023-01-08T19:50:59.126Z,37.00
2023-01-08T19:53:29.520Z,50.60
2023-01-08T19:56:06.322Z,67.90
2023-01-08T19:58:36.791Z,57.50
2023-01-08T20:01:38.730Z,45.40
2023-01-08T20:04:07.461Z,44.50
2023-01-08T20:06:37.973Z,38.10
2023-01-08T20:12:04.706Z,26.40
2023-01-08T20:14:34.469Z,26.10
2023-01-08T20:17:05.843Z,26.10
2023-01-08T20:19:42.144Z,26.80
2023-01-08T20:22:12.832Z,25.50
2023-01-08T20:24:47.929Z,22.10
2023-01-08T20:27:16.924Z,22.30
2023-01-08T20:29:48.943Z,22.10
2023-01-08T20:32:19.803Z,23.40
2023-01-08T20:34:52.031Z,24.00
2023-01-08T20:37:21.668Z,21.80
2023-01-08T20:39:52.497Z,23.40
2023-01-08T20:42:33.152Z,26.00
2023-01-08T20:45:05.836Z,24.80
2023-01-08T20:47:38.267Z,24.20
2023-01-08T20:50:19.491Z,23.20
2023-01-08T20:52:50.263Z,23.40
2023-01-08T20:58:47.721Z,24.10
2023-01-08T21:01:34.209Z,23.10
2023-01-08T21:06:34.613Z,23.50
2023-01-08T21:09:10.661Z,23.50
2023-01-08T21:11:40.996Z,24.70
2023-01-08T21:14:10.839Z,25.20
2023-01-08T21:16:40.828Z,25.20
2023-01-08T21:19:10.535Z,25.40
2023-01-08T21:21:41.038Z,27.20
2023-01-08T21:24:12.533Z,28.20
2023-01-08T21:26:42.017Z,28.50
2023-01-08T21:29:10.661Z,27.70
2023-01-08T21:31:39.422Z,27.70
2023-01-08T21:34:09.019Z,29.20
2023-01-08T21:36:39.375Z,27.70
2023-01-08T21:39:07.762Z,28.30
2023-01-08T21:41:54.266Z,29.90
2023-01-08T21:44:43.357Z,28.80
2023-01-08T21:47:16.587Z,29.40
2023-01-08T21:49:46.079Z,30.30
2023-01-08T21:52:32.848Z,31.70
2023-01-08T21:55:01.588Z,33.50
2023-01-08T21:57:29.540Z,32.20
2023-01-08T21:59:57.660Z,33.50
2023-01-08T22:02:25.663Z,41.70
2023-01-08T22:04:57.006Z,37.80
2023-01-08T22:07:26.261Z,37.00
2023-01-08T22:09:54.588Z,31.10
2023-01-08T22:12:24.231Z,44.00
2023-01-08T22:14:56.184Z,43.30
2023-01-08T22:17:26.231Z,48.30
2023-01-08T22:19:54.423Z,52.10
2023-01-08T22:22:22.314Z,50.00
2023-01-08T22:24:53.601Z,40.60
2023-01-08T22:27:21.880Z,39.20
2023-01-08T22:29:49.930Z,44.00
2023-01-08T22:32:17.963Z,48.30
2023-01-08T22:34:46.785Z,48.10
2023-01-08T22:37:16.882Z,55.10
2023-01-08T22:39:45.993Z,50.40
2023-01-08T22:42:13.899Z,53.10
2023-01-08T22:44:41.975Z,55.00
2023-01-08T22:47:10.204Z,62.40
2023-01-08T22:49:38.261Z,65.50
2023-01-08T22:52:07.079Z,59.40
2023-01-08T22:54:35.047Z,74.60
2023-01-08T22:57:02.978Z,72.60
2023-01-08T22:59:30.912Z,70.00
2023-01-08T23:01:58.825Z,77.30
2023-01-08T23:04:26.742Z,88.70
2023-01-08T23:06:54.620Z,105.10
2023-01-08T23:09:22.702Z,104.40
2023-01-08T23:11:50.603Z,110.10
2023-01-08T23:14:18.561Z,110.90
2023-01-08T23:16:46.443Z,99.40
2023-01-08T23:19:14.414Z,94.00
2023-01-08T23:21:42.333Z,80.80
2023-01-08T23:24:13.617Z,71.00
2023-01-08T23:26:42.500Z,72.00
2023-01-08T23:29:11.100Z,68.00
2023-01-08T23:31:39.323Z,70.90
2023-01-08T23:34:07.804Z,52.80
2023-01-08T23:36:35.923Z,56.80
2023-01-08T23:39:04.735Z,53.80
2023-01-08T23:41:34.872Z,39.70
2023-01-08T23:44:07.933Z,44.80
2023-01-08T23:46:36.226Z,43.50
2023-01-08T23:49:07.143Z,43.00
2023-01-08T23:51:35.076Z,42.60
2023-01-08T23:54:03.520Z,41.20
2023-01-08T23:56:31.864Z,32.40
2023-01-08T23:58:59.682Z,32.50
